Time;durP1;ratioP1;P1;durP2;ratioP2;P2;SDS_P1;SDS_P2;PMS_P1;PMS_P2;Temp;Humidity;BMP_temperature;BMP_pressure;BME280_temperature;BME280_humidity;BME280_pressure;Samples;Min_cycle;Max_cycle;Signal;HPM_P1;HPM_P2
2023/04/21 00:00:32;;;;;;;;;;;;;;;;;;10547697;28;19927;-75
2023/04/21 00:05:41;;;;;;;;;;;;;;;;;;10552816;27;19924;-75
2023/04/21 00:10:45;;;;;;;24.48;10.40;;;;;;;;;;10559723;27;20008;-75
2023/04/21 00:15:49;;;;;;;15.70;6.63;;;;;;;;;;10545043;27;20166;-76
2023/04/21 00:20:51;;;;;;;;;;;;;;;;;;10563661;27;20510;-76
2023/04/21 00:25:53;;;;;;;;;;;;;;;;;;10556544;27;20634;-77
2023/04/21 00:30:57;;;;;;;27.23;9.50;;;;;;;;;;10550518;27;19920;-75
2023/04/21 00:36:00;;;;;;;;;;;;;;;;;;10559487;27;20031;-75
2023/04/21 00:41:03;;;;;;;16.92;6.20;;;;;;;;;;10556409;27;19955;-76
2023/04/21 00:46:06;;;;;;;30.55;10.05;;;;;;;;;;10557114;27;20062;-76
2023/04/21 00:51:09;;;;;;;25.52;8.77;;;;;;;;;;10557746;27;20044;-76
2023/04/21 00:56:12;;;;;;;;;;;;;;;;;;10550759;27;20046;-76
2023/04/21 01:01:16;;;;;;;;;;;;;;;;;;10561259;27;20218;-77
2023/04/21 01:06:20;;;;;;;30.35;10.95;;;;;;;;;;10551926;27;19955;-75
2023/04/21 01:11:22;;;;;;;;;;;;;;;;;;10553534;28;20089;-75
2023/04/21 01:16:25;;;;;;;;;;;;;;;;;;10560611;27;20410;-75
2023/04/21 01:21:30;;;;;;;;;;;;;;;;;;10561078;27;19946;-75
2023/04/21 01:26:35;;;;;;;31.77;9.27;;;;;;;;;;10538736;27;19920;-76
2023/04/21 01:31:37;;;;;;;;;;;;;;;;;;10545156;28;20038;-75
2023/04/21 01:36:41;;;;;;;30.52;10.45;;;;;;;;;;10541366;27;19930;-76
2023/04/21 01:41:49;;;;;;;28.50;10.15;;;;;;;;;;10560050;27;20138;-75
2023/04/21 01:46:53;;;;;;;;;;;;;;;;;;10546261;27;20150;-74
2023/04/21 01:51:55;;;;;;;;;;;;;;;;;;10558664;27;20369;-75
2023/04/21 01:56:58;;;;;;;;;;;;;;;;;;10554627;27;19927;-76
2023/04/21 02:02:00;;;;;;;;;;;;;;;;;;10544033;27;19924;-75
2023/04/21 02:07:04;;;;;;;;;;;;;;;;;;10530720;27;19920;-74
2023/04/21 02:12:07;;;;;;;;;;;;;;;;;;10535748;27;20383;-74
2023/04/21 02:17:19;;;;;;;;;;;;;;;;;;10536176;28;19920;-74
2023/04/21 02:22:22;;;;;;;;;;;;;;;;;;10555763;27;20308;-74
2023/04/21 02:27:24;;;;;;;;;;;;;;;;;;10547088;27;19981;-76
2023/04/21 02:32:27;;;;;;;;;;;;;;;;;;10550115;27;19945;-74
2023/04/21 02:37:29;;;;;;;;;;;;;;;;;;10561127;27;20380;-74
2023/04/21 02:42:32;;;;;;;;;;;;;;;;;;10544717;27;19931;-75
2023/04/21 02:47:34;;;;;;;;;;;;;;;;;;10546188;27;20380;-77
2023/04/21 02:52:37;;;;;;;;;;;;;;;;;;10549726;27;19954;-75
2023/04/21 02:57:40;;;;;;;;;;;;;;;;;;10544798;27;19928;-75
2023/04/21 03:02:43;;;;;;;;;;;;;;;;;;10555679;27;19973;-74
2023/04/21 03:07:47;;;;;;;25.73;9.63;;;;;;;;;;10545488;27;19919;-74
2023/04/21 03:12:49;;;;;;;31.35;10.40;;;;;;;;;;10563581;27;20335;-75
2023/04/21 03:17:52;;;;;;;;;;;;;;;;;;10555979;28;20100;-76
2023/04/21 03:22:55;;;;;;;;;;;;;;;;;;10552496;27;19927;-75
2023/04/21 03:27:59;;;;;;;16.05;6.85;;;;;;;;;;10527600;28;20384;-75
2023/04/21 03:33:03;;;;;;;;;;;;;;;;;;10549899;28;20046;-76
2023/04/21 03:38:06;;;;;;;31.13;10.57;;;;;;;;;;10549827;27;19923;-75
2023/04/21 03:43:10;;;;;;;36.47;11.73;;;;;;;;;;10544589;27;20120;-75
2023/04/21 03:48:13;;;;;;;31.23;11.63;;;;;;;;;;10559060;27;20028;-76
2023/04/21 03:53:15;;;;;;;;;;;;;;;;;;10559005;27;20093;-76
2023/04/21 03:58:20;;;;;;;28.58;10.23;;;;;;;;;;10572445;27;19919;-75
2023/04/21 04:03:23;;;;;;;26.52;9.70;;;;;;;;;;10558265;27;20500;-75
2023/04/21 04:08:26;;;;;;;29.67;10.15;;;;;;;;;;10564917;27;20039;-77
2023/04/21 04:13:31;;;;;;;30.52;10.65;;;;;;;;;;10542773;27;20096;-76
2023/04/21 04:18:36;;;;;;;35.63;12.07;;;;;;;;;;10553131;28;20035;-76
2023/04/21 04:23:50;;;;;;;30.60;10.95;;;;;;;;;;10562454;27;20051;-76
2023/04/21 04:28:55;;;;;;;31.08;10.57;;;;;;;;;;10562949;27;20032;-76
2023/04/21 04:33:58;;;;;;;26.08;9.48;;;;;;;;;;10549439;28;20405;-76
2023/04/21 04:39:00;;;;;;;24.23;9.60;;;;;;;;;;10532057;27;20038;-75
2023/04/21 04:44:05;;;;;;;27.58;10.52;;;;;;;;;;10568293;27;20047;-75
2023/04/21 04:49:07;;;;;;;26.92;10.50;;;;;;;;;;10551728;27;20078;-74
2023/04/21 04:54:10;;;;;;;25.63;9.50;;;;;;;;;;10546079;27;20769;-75
2023/04/21 04:59:14;;;;;;;25.88;10.25;;;;;;;;;;10560520;27;20040;-75
2023/04/21 05:04:17;;;;;;;30.13;11.73;;;;;;;;;;10550755;27;20126;-76
2023/04/21 05:09:27;;;;;;;32.55;12.20;;;;;;;;;;10565264;27;20032;-76
2023/04/21 05:14:32;;;;;;;34.60;11.43;;;;;;;;;;10544069;27;20502;-76
2023/04/21 05:19:35;;;;;;;29.67;11.15;;;;;;;;;;10555804;28;20039;-77
2023/04/21 05:24:41;;;;;;;28.77;11.55;;;;;;;;;;10549729;27;20546;-77
2023/04/21 05:29:45;;;;;;;30.73;12.00;;;;;;;;;;10551817;27;20523;-77
2023/04/21 05:34:48;;;;;;;28.30;10.70;;;;;;;;;;10537933;27;20480;-77
2023/04/21 05:39:51;;;;;;;25.50;10.02;;;;;;;;;;10545102;27;20449;-77
2023/04/21 05:44:56;;;;;;;23.92;9.75;;;;;;;;;;10558051;27;20035;-77
2023/04/21 05:50:00;;;;;;;23.77;10.45;;;;;;;;;;10559448;27;20092;-77
2023/04/21 05:55:03;;;;;;;9.95;4.00;;;;;;;;;;10555495;27;20671;-76
2023/04/21 06:00:08;;;;;;;23.13;9.98;;;;;;;;;;10544884;27;20036;-76
2023/04/21 06:05:10;;;;;;;21.63;9.32;;;;;;;;;;10549060;27;20040;-76
2023/04/21 06:10:13;;;;;;;25.85;9.82;;;;;;;;;;10559240;27;20180;-77
2023/04/21 06:15:18;;;;;;;13.27;3.90;;;;;;;;;;10554919;27;20138;-76
2023/04/21 06:20:21;;;;;;;;;;;;;;;;;;10557682;27;20048;-77
2023/04/21 06:25:24;;;;;;;20.65;8.63;;;;;;;;;;10535014;27;19932;-76
2023/04/21 06:30:28;;;;;;;19.15;7.93;;;;;;;;;;10543316;27;21595;-78
2023/04/21 06:35:34;;;;;;;23.55;13.00;;;;;;;;;;10545460;28;20523;-76
2023/04/21 06:40:37;;;;;;;18.67;9.70;;;;;;;;;;10544848;27;20044;-75
2023/04/21 06:45:42;;;;;;;22.92;9.57;;;;;;;;;;10545728;27;20035;-78
2023/04/21 06:50:45;;;;;;;;;;;;;;;;;;10540111;27;20051;-75
2023/04/21 06:55:47;;;;;;;19.35;7.85;;;;;;;;;;10534664;27;19935;-77
2023/04/21 07:00:52;;;;;;;19.10;8.05;;;;;;;;;;10542482;27;20182;-77
2023/04/21 07:05:55;;;;;;;16.13;7.47;;;;;;;;;;10538812;27;20342;-77
2023/04/21 07:10:58;;;;;;;14.23;7.30;;;;;;;;;;10534555;28;20027;-77
2023/04/21 07:16:03;;;;;;;18.05;8.95;;;;;;;;;;10536022;28;20639;-75
2023/04/21 07:21:06;;;;;;;;;;;;;;;;;;10538192;27;20607;-76
2023/04/21 07:26:09;;;;;;;11.95;4.93;;;;;;;;;;10537782;28;19931;-76
2023/04/21 07:31:13;;;;;;;20.73;8.50;;;;;;;;;;10541320;28;20040;-75
2023/04/21 07:36:17;;;;;;;14.35;7.70;;;;;;;;;;10523578;28;20051;-76
2023/04/21 07:41:19;;;;;;;14.05;7.47;;;;;;;;;;10533327;28;20056;-75
2023/04/21 07:46:33;;;;;;;14.37;7.83;;;;;;;;;;10538284;28;21973;-76
2023/04/21 07:51:37;;;;;;;13.80;7.88;;;;;;;;;;10538253;28;20040;-75
2023/04/21 07:56:39;;;;;;;12.20;7.05;;;;;;;;;;10538914;28;20044;-75
2023/04/21 08:01:44;;;;;;;14.18;7.22;;;;;;;;;;10535936;28;20039;-75
2023/04/21 08:06:47;;;;;;;14.30;7.55;;;;;;;;;;10523274;28;20047;-76
2023/04/21 08:11:49;;;;;;;11.93;7.30;;;;;;;;;;10545112;28;20043;-76
2023/04/21 08:16:53;;;;;;;12.75;7.32;;;;;;;;;;10537128;28;20622;-77
2023/04/21 08:21:59;;;;;;;11.77;6.93;;;;;;;;;;10538584;28;20476;-75
2023/04/21 08:27:02;;;;;;;12.80;8.02;;;;;;;;;;10551403;28;20416;-75
2023/04/21 08:32:07;;;;;;;13.52;8.65;;;;;;;;;;10546590;28;20118;-75
2023/04/21 08:37:10;;;;;;;11.30;7.97;;;;;;;;;;10548093;28;20032;-76
2023/04/21 08:42:13;;;;;;;12.32;8.40;;;;;;;;;;10544457;27;20126;-76
2023/04/21 08:47:17;;;;;;;11.65;8.95;;;;;;;;;;10545022;27;20047;-76
2023/04/21 08:52:20;;;;;;;10.13;7.43;;;;;;;;;;10540525;27;20071;-76
2023/04/21 08:57:23;;;;;;;11.48;9.15;;;;;;;;;;10541007;27;20418;-76
2023/04/21 09:02:25;;;;;;;;;;;;;;;;;;10541608;27;20143;-76
2023/04/21 09:07:29;;;;;;;;;;;;;;;;;;10546102;28;20429;-75
2023/04/21 09:12:31;;;;;;;;;;;;;;;;;;10547028;27;19919;-76
2023/04/21 09:17:37;;;;;;;9.68;7.80;;;;;;;;;;10544629;27;20387;-76
2023/04/21 09:22:41;;;;;;;12.35;8.82;;;;;;;;;;10544993;27;20071;-77
2023/04/21 09:27:44;;;;;;;;;;;;;;;;;;10549851;27;20071;-76
2023/04/21 09:32:47;;;;;;;;;;;;;;;;;;10541442;27;19934;-76
2023/04/21 09:37:50;;;;;;;;;;;;;;;;;;10547952;27;20302;-76
2023/04/21 09:42:53;;;;;;;;;;;;;;;;;;10541485;27;19924;-77
2023/04/21 09:47:55;;;;;;;;;;;;;;;;;;10541351;27;21889;-76
2023/04/21 09:53:03;;;;;;;11.95;8.77;;;;;;;;;;10542821;27;20352;-77
2023/04/21 09:58:08;;;;;;;12.70;9.88;;;;;;;;;;10537522;27;20453;-77
2023/04/21 10:03:12;;;;;;;14.35;10.50;;;;;;;;;;10533776;27;20825;-78
2023/04/21 10:08:17;;;;;;;11.23;8.60;;;;;;;;;;10517961;27;20414;-77
2023/04/21 10:13:20;;;;;;;;;;;;;;;;;;10549048;27;20067;-84
2023/04/21 10:18:23;;;;;;;;;;;;;;;;;;10547118;27;19924;-77
2023/04/21 10:23:26;;;;;;;;;;;;;;;;;;10551261;27;19959;-77
2023/04/21 10:28:38;;;;;;;;;;;;;;;;;;10564935;27;20024;-77
2023/04/21 10:33:40;;;;;;;;;;;;;;;;;;10545947;27;20132;-77
2023/04/21 10:38:43;;;;;;;;;;;;;;;;;;10540045;27;19920;-77
2023/04/21 10:43:50;;;;;;;14.27;10.68;;;;;;;;;;10540034;27;20464;-77
2023/04/21 10:48:53;;;;;;;15.77;11.63;;;;;;;;;;10548417;28;20420;-77
2023/04/21 10:53:56;;;;;;;12.10;9.98;;;;;;;;;;10550576;27;20035;-77
2023/04/21 10:59:01;;;;;;;13.57;11.73;;;;;;;;;;10545856;27;22230;-76
2023/04/21 11:04:03;;;;;;;;;;;;;;;;;;10542090;27;20453;-75
2023/04/21 11:09:06;;;;;;;;;;;;;;;;;;10546780;27;21443;-75
2023/04/21 11:14:09;;;;;;;;;;;;;;;;;;10540356;27;20430;-77
2023/04/21 11:19:12;;;;;;;;;;;;;;;;;;10539874;28;20372;-77
2023/04/21 11:24:15;;;;;;;;;;;;;;;;;;10543537;27;19932;-77
2023/04/21 11:29:17;;;;;;;;;;;;;;;;;;10556232;27;19928;-77
2023/04/21 11:34:20;;;;;;;;;;;;;;;;;;10543549;28;19946;-78
2023/04/21 11:39:23;;;;;;;;;;;;;;;;;;10537525;28;19934;-78
2023/04/21 11:44:27;;;;;;;;;;;;;;;;;;10544926;28;20497;-78
2023/04/21 11:49:30;;;;;;;;;;;;;;;;;;10536719;28;20399;-78
2023/04/21 11:54:34;;;;;;;;;;;;;;;;;;10539634;28;20342;-78
2023/04/21 11:59:36;;;;;;;;;;;;;;;;;;10549132;27;20031;-78
2023/04/21 12:04:39;;;;;;;;;;;;;;;;;;10541801;27;19939;-78
2023/04/21 12:09:43;;;;;;;;;;;;;;;;;;10547911;27;19920;-78
2023/04/21 12:14:46;;;;;;;;;;;;;;;;;;10541905;28;20456;-80
2023/04/21 12:19:48;;;;;;;;;;;;;;;;;;10561256;27;19985;-77
2023/04/21 12:24:51;;;;;;;;;;;;;;;;;;10546229;27;19934;-77
2023/04/21 12:29:54;;;;;;;;;;;;;;;;;;10546277;27;19985;-76
2023/04/21 12:34:57;;;;;;;;;;;;;;;;;;10548706;27;20725;-76
2023/04/21 12:40:00;;;;;;;;;;;;;;;;;;10556503;27;20299;-77
2023/04/21 12:45:04;;;;;;;;;;;;;;;;;;10534021;28;19934;-78
2023/04/21 12:50:06;;;;;;;;;;;;;;;;;;10543823;27;19923;-78
2023/04/21 12:55:09;;;;;;;;;;;;;;;;;;10538009;28;19924;-77
2023/04/21 13:00:13;;;;;;;;;;;;;;;;;;10542896;27;19931;-77
2023/04/21 13:05:16;;;;;;;;;;;;;;;;;;10548516;27;19928;-78
2023/04/21 13:10:18;;;;;;;;;;;;;;;;;;10547594;27;19923;-77
2023/04/21 13:15:23;;;;;;;;;;;;;;;;;;10533949;27;19934;-77
2023/04/21 13:20:25;;;;;;;;;;;;;;;;;;10544301;27;19934;-78
2023/04/21 13:25:29;;;;;;;;;;;;;;;;;;10551070;27;19920;-77
2023/04/21 13:30:32;;;;;;;;;;;;;;;;;;10552019;27;20003;-77
2023/04/21 13:35:34;;;;;;;;;;;;;;;;;;10539374;27;19919;-76
2023/04/21 13:40:37;;;;;;;;;;;;;;;;;;10535507;27;19924;-77
2023/04/21 13:45:40;;;;;;;;;;;;;;;;;;10545979;27;20415;-78
2023/04/21 13:50:43;;;;;;;;;;;;;;;;;;10545206;27;20229;-78
2023/04/21 13:55:45;;;;;;;;;;;;;;;;;;10538509;27;19934;-78
2023/04/21 14:00:48;;;;;;;;;;;;;;;;;;10541248;27;21249;-78
2023/04/21 14:05:51;;;;;;;;;;;;;;;;;;10524575;27;19933;-77
2023/04/21 14:10:54;;;;;;;;;;;;;;;;;;10543154;27;19920;-77
2023/04/21 14:15:57;;;;;;;;;;;;;;;;;;10550573;27;20372;-77
2023/04/21 14:20:59;;;;;;;;;;;;;;;;;;10546895;27;19931;-78
2023/04/21 14:26:02;;;;;;;;;;;;;;;;;;10546084;27;19928;-77
2023/04/21 14:31:05;;;;;;;;;;;;;;;;;;10541563;28;19931;-78
2023/04/21 14:36:10;;;;;;;3.28;2.22;;;;;;;;;;10537296;28;20175;-79
2023/04/21 14:41:12;;;;;;;3.13;2.53;;;;;;;;;;10544445;27;20431;-78
2023/04/21 14:46:25;;;;;;;3.28;2.28;;;;;;;;;;10545879;28;20450;-78
2023/04/21 14:51:30;;;;;;;5.30;2.50;;;;;;;;;;10541896;27;20418;-78
2023/04/21 14:56:33;;;;;;;;;;;;;;;;;;10527342;28;20039;-77
2023/04/21 15:01:35;;;;;;;;;;;;;;;;;;10545483;28;20494;-77
2023/04/21 15:06:44;;;;;;;3.55;2.05;;;;;;;;;;10556777;27;19923;-77
2023/04/21 15:11:47;;;;;;;4.22;1.90;;;;;;;;;;10550300;27;20036;-80
2023/04/21 15:16:50;;;;;;;3.08;2.13;;;;;;;;;;10545992;27;20047;-77
2023/04/21 15:21:54;;;;;;;4.32;2.00;;;;;;;;;;10549127;27;20056;-77
2023/04/21 15:26:57;;;;;;;5.50;2.50;;;;;;;;;;10559191;28;20404;-77
2023/04/21 15:32:09;;;;;;;3.35;1.77;;;;;;;;;;10605821;28;20040;-76
2023/04/21 15:37:16;;;;;;;2.60;1.90;;;;;;;;;;10584741;28;20142;-77
2023/04/21 15:42:18;;;;;;;2.25;1.98;;;;;;;;;;10557878;28;20476;-76
2023/04/21 15:47:22;;;;;;;2.88;1.85;;;;;;;;;;10577879;27;20048;-77
2023/04/21 15:52:28;;;;;;;2.88;1.80;;;;;;;;;;10554485;28;20048;-78
2023/04/21 15:57:32;;;;;;;4.82;2.05;;;;;;;;;;10555404;28;20040;-76
2023/04/21 16:02:35;;;;;;;2.95;1.63;;;;;;;;;;10557636;28;20038;-77
2023/04/21 16:07:42;;;;;;;3.13;1.80;;;;;;;;;;10552168;28;22174;-77
2023/04/21 16:12:49;;;;;;;4.90;2.10;;;;;;;;;;10545505;28;20435;-77
2023/04/21 16:17:52;;;;;;;2.38;1.70;;;;;;;;;;10553182;28;20377;-78
2023/04/21 16:22:56;;;;;;;2.85;1.73;;;;;;;;;;10558366;28;20036;-77
2023/04/21 16:27:59;;;;;;;2.85;1.92;;;;;;;;;;10547881;28;20464;-77
2023/04/21 16:33:02;;;;;;;4.10;2.00;;;;;;;;;;10550577;28;20036;-77
2023/04/21 16:38:06;;;;;;;4.45;1.90;;;;;;;;;;10545849;28;20040;-77
2023/04/21 16:43:10;;;;;;;3.38;2.00;;;;;;;;;;10549340;28;20050;-77
2023/04/21 16:48:13;;;;;;;3.72;1.90;;;;;;;;;;10563183;27;20071;-77
2023/04/21 16:53:18;;;;;;;3.33;1.92;;;;;;;;;;10561677;28;20074;-76
2023/04/21 16:58:23;;;;;;;2.95;1.90;;;;;;;;;;10561269;27;20042;-77
2023/04/21 17:03:26;;;;;;;2.38;1.63;;;;;;;;;;10561698;27;20322;-76
2023/04/21 17:08:31;;;;;;;3.60;1.67;;;;;;;;;;10560072;27;20119;-76
2023/04/21 17:13:37;;;;;;;2.75;1.90;;;;;;;;;;10562434;27;20070;-77
2023/04/21 17:18:40;;;;;;;4.18;1.88;;;;;;;;;;10564438;27;20115;-77
2023/04/21 17:23:45;;;;;;;2.67;1.95;;;;;;;;;;10560737;27;20059;-77
2023/04/21 17:28:49;;;;;;;6.30;2.90;;;;;;;;;;10558948;27;20845;-76
2023/04/21 17:33:52;;;;;;;3.55;2.33;;;;;;;;;;10562280;27;20028;-76
2023/04/21 17:38:57;;;;;;;3.72;2.20;;;;;;;;;;10559747;27;20069;-77
2023/04/21 17:44:00;;;;;;;4.22;2.50;;;;;;;;;;10578159;27;20407;-76
2023/04/21 17:49:03;;;;;;;5.60;2.20;;;;;;;;;;10532100;28;20044;-77
2023/04/21 17:54:07;;;;;;;4.83;2.43;;;;;;;;;;10552803;27;20028;-77
2023/04/21 17:59:10;;;;;;;4.57;2.40;;;;;;;;;;10556093;27;20096;-77
2023/04/21 18:04:15;;;;;;;3.40;2.28;;;;;;;;;;10562618;27;20048;-77
2023/04/21 18:09:20;;;;;;;5.22;2.55;;;;;;;;;;10558904;28;20685;-77
2023/04/21 18:14:23;;;;;;;3.70;2.30;;;;;;;;;;10548234;28;20031;-76
2023/04/21 18:19:26;;;;;;;;;;;;;;;;;;10559114;27;20044;-77
2023/04/21 18:24:31;;;;;;;5.43;2.92;;;;;;;;;;10545425;27;20018;-76
2023/04/21 18:29:33;;;;;;;5.57;3.00;;;;;;;;;;10552155;27;20038;-76
2023/04/21 18:34:36;;;;;;;5.80;2.97;;;;;;;;;;10559125;27;20120;-79
2023/04/21 18:39:42;;;;;;;5.40;3.20;;;;;;;;;;10556095;27;20039;-77
2023/04/21 18:44:44;;;;;;;9.70;2.97;;;;;;;;;;10568758;27;20759;-78
2023/04/21 18:49:47;;;;;;;4.82;2.70;;;;;;;;;;10556604;27;20441;-77
2023/04/21 18:54:52;;;;;;;4.20;2.40;;;;;;;;;;10547965;27;20039;-78
2023/04/21 18:59:55;;;;;;;7.03;3.38;;;;;;;;;;10550828;28;20035;-77
2023/04/21 19:04:58;;;;;;;6.47;3.40;;;;;;;;;;10556110;27;20149;-77
2023/04/21 19:10:07;;;;;;;7.47;3.22;;;;;;;;;;10552224;28;20084;-76
2023/04/21 19:15:10;;;;;;;6.30;3.00;;;;;;;;;;10532815;28;20035;-77
2023/04/21 19:20:23;;;;;;;7.75;3.25;;;;;;;;;;10552536;27;20046;-75
2023/04/21 19:25:27;;;;;;;6.10;3.10;;;;;;;;;;10547800;27;20044;-77
2023/04/21 19:30:30;;;;;;;5.03;2.63;;;;;;;;;;10556019;27;20111;-77
2023/04/21 19:35:33;;;;;;;3.45;1.52;;;;;;;;;;10553515;28;20043;-75
2023/04/21 19:40:37;;;;;;;1.60;1.00;;;;;;;;;;10575681;27;20045;-76
2023/04/21 19:45:40;;;;;;;1.77;0.68;;;;;;;;;;10547833;28;20104;-76
2023/04/21 19:50:43;;;;;;;1.17;0.80;;;;;;;;;;10537081;28;20143;-76
2023/04/21 19:55:49;;;;;;;1.23;0.70;;;;;;;;;;10545162;28;20036;-76
2023/04/21 20:00:55;;;;;;;0.50;0.47;;;;;;;;;;10561007;28;20064;-76
2023/04/21 20:05:57;;;;;;;1.17;0.80;;;;;;;;;;10554144;28;20040;-78
2023/04/21 20:11:01;;;;;;;1.13;0.60;;;;;;;;;;10555980;28;20044;-77
2023/04/21 20:16:05;;;;;;;1.20;0.73;;;;;;;;;;10546844;28;20042;-77
2023/04/21 20:21:08;;;;;;;0.70;0.70;;;;;;;;;;10551283;27;20084;-77
2023/04/21 20:26:13;;;;;;;0.55;0.43;;;;;;;;;;10545845;28;20047;-75
2023/04/21 20:31:24;;;;;;;2.03;1.00;;;;;;;;;;10559231;27;20063;-78
2023/04/21 20:36:27;;;;;;;1.02;0.60;;;;;;;;;;10542237;27;20035;-77
2023/04/21 20:41:31;;;;;;;1.43;0.70;;;;;;;;;;10565109;27;20393;-77
2023/04/21 20:46:34;;;;;;;2.47;0.75;;;;;;;;;;10558290;27;20042;-78
2023/04/21 20:51:40;;;;;;;1.20;0.80;;;;;;;;;;10542229;28;20040;-78
2023/04/21 20:56:46;;;;;;;1.20;1.00;;;;;;;;;;10555159;27;20035;-78
2023/04/21 21:01:49;;;;;;;1.33;0.90;;;;;;;;;;10571048;27;20043;-78
2023/04/21 21:06:52;;;;;;;2.83;1.00;;;;;;;;;;10549256;27;20055;-77
2023/04/21 21:11:57;;;;;;;3.35;1.30;;;;;;;;;;10554069;27;20300;-75
2023/04/21 21:17:01;;;;;;;1.55;0.80;;;;;;;;;;10549432;27;20606;-75
2023/04/21 21:22:04;;;;;;;3.78;1.60;;;;;;;;;;10543626;27;20063;-77
2023/04/21 21:27:09;;;;;;;2.05;1.00;;;;;;;;;;10556264;27;20076;-77
2023/04/21 21:32:12;;;;;;;8.35;4.40;;;;;;;;;;10551745;27;20054;-77
2023/04/21 21:37:15;;;;;;;3.72;1.80;;;;;;;;;;10552364;28;20078;-77
2023/04/21 21:42:19;;;;;;;2.45;1.27;;;;;;;;;;10563568;27;20047;-78
2023/04/21 21:47:22;;;;;;;;;;;;;;;;;;10559376;27;20156;-77
2023/04/21 21:52:27;;;;;;;4.50;1.38;;;;;;;;;;10561746;27;19973;-77
2023/04/21 21:57:32;;;;;;;7.85;3.17;;;;;;;;;;10535663;27;20070;-77
2023/04/21 22:02:35;;;;;;;3.60;1.50;;;;;;;;;;10551752;27;20048;-77
2023/04/21 22:07:41;;;;;;;2.70;1.40;;;;;;;;;;10560576;27;20132;-76
2023/04/21 22:12:45;;;;;;;4.40;1.30;;;;;;;;;;10552520;27;20058;-76
2023/04/21 22:17:48;;;;;;;;;;;;;;;;;;10557291;27;20452;-76
2023/04/21 22:22:51;;;;;;;2.38;1.30;;;;;;;;;;10554235;27;19935;-77
2023/04/21 22:27:56;;;;;;;2.03;1.13;;;;;;;;;;10552042;27;20568;-76
2023/04/21 22:32:59;;;;;;;3.30;1.20;;;;;;;;;;10548711;27;20032;-76
2023/04/21 22:38:02;;;;;;;2.30;1.30;;;;;;;;;;10549952;27;20066;-77
2023/04/21 22:43:06;;;;;;;1.60;1.00;;;;;;;;;;10523207;28;20035;-76
2023/04/21 22:48:12;;;;;;;2.58;1.40;;;;;;;;;;10549707;28;20039;-76
2023/04/21 22:53:15;;;;;;;3.28;1.50;;;;;;;;;;10548111;27;20039;-77
2023/04/21 22:58:20;;;;;;;3.40;1.60;;;;;;;;;;10553034;28;20047;-77
2023/04/21 23:03:23;;;;;;;5.03;1.60;;;;;;;;;;10555892;27;20067;-77
2023/04/21 23:08:26;;;;;;;2.63;1.35;;;;;;;;;;10553667;27;20134;-78
2023/04/21 23:13:39;;;;;;;4.57;1.75;;;;;;;;;;10549411;27;20040;-79
2023/04/21 23:18:42;;;;;;;4.13;1.50;;;;;;;;;;10546956;28;20377;-77
2023/04/21 23:23:45;;;;;;;5.25;1.80;;;;;;;;;;10538663;28;20492;-77
2023/04/21 23:28:49;;;;;;;3.95;1.67;;;;;;;;;;10552963;27;20067;-77
2023/04/21 23:33:53;;;;;;;4.75;1.83;;;;;;;;;;10533908;28;20050;-75
2023/04/21 23:38:55;;;;;;;3.85;1.85;;;;;;;;;;10558523;27;20035;-76
2023/04/21 23:44:00;;;;;;;4.30;1.93;;;;;;;;;;10565728;27;20123;-77
2023/04/21 23:49:03;;;;;;;3.55;1.65;;;;;;;;;;10534547;28;20036;-75
2023/04/21 23:54:07;;;;;;;5.40;1.70;;;;;;;;;;10536664;27;20052;-76
2023/04/21 23:59:11;;;;;;;4.22;1.60;;;;;;;;;;10558719;27;20305;-76
